Walnut Ridge Regional, AR

6:48 AM CDT on August 31, 2014 (GMT -0500)
Newport | Change Station
CLOSE
Current Station
Airport
Location: Newport,
Elevation: 240 ft
Nearby Weather Stations

Elev 240 ft 35.64 °N, 91.17 °W | Updated 33 minutes ago

Mostly Cloudy
Mostly Cloudy
73 °F
Feels Like 73 °F
N
8
Wind Variable Wind from SSW

Today
High -- | Low -- °F
--% Chance of Precip.
Yesterday
High -- | Low -- °F
Precip. -- in
6:34 AM 7:32 PM
Waxing Crescent, 30% visible
Pressure 30.00 in
Visibility 10.0 miles
Clouds Mostly Cloudy 2000 ft
Dew Point 73 °F
Humidity 100%
Rainfall 0.00 in
Snow Depth Not available.
UV 0 out of 12
Pollen 6.40 out of 12
Air Quality Not available.
Flu Activity Not available.
SPECI KM19 311115Z AUTO 20007KT 10SM BKN020 23/23 A3000 RMK AO2

More Conditions Fewer Conditions

Pressure 30.00 in
Visibility 10.0 miles
Clouds Mostly Cloudy 2000 ft
Dew Point 73 °F
Humidity 100%
Rainfall 0.00 in
Snow Depth Not available.
UV 0 out of 12
Pollen 6.40 out of 12
Air Quality Not available.
Flu Activity Not available.
SPECI KM19 311115Z AUTO 20007KT 10SM BKN020 23/23 A3000 RMK AO2

More Conditions Fewer Conditions

10-Day Weather Forecast

Almanac

Astronomy

Aug. 31, 2014 Rise Set
Actual Time 6:34 AM CDT 7:32 PM CDT
Civil Twilight 6:08 AM CDT 7:58 PM CDT
Nautical Twilight 5:37 AM CDT 8:30 PM CDT
Astronomical Twilight 5:04 AM CDT 9:02 PM CDT
Moon 12:10 PM CDT 10:59 PM CDT
Length of Visible Light 13h 50m
Length of Day
12h 58m
Tomorrow will be 2m 12s shorter.
Waxing Crescent, 30% of the Moon is Illuminated
Today
Waxing Crescent
Sep 2
First Quarter
Sep 8
Full
Sep 15
Last Quarter
Sep 24
New

Today's Extremes

State Highs State Lows

Community

WunderPhotos

Upload Photos

1,748,848 photos uploaded!

Nearby

Snow Depth

Station Depth Elevation
No new snow has been reported.

Earthquake Activity

City Distance Mag. Time & Date
No recent earthquake activity has been reported nearby.
Minimum magnitude displayed is 2.5.

Coastal Water Temperatures

Place Temperature
No Stations Reporting

Nearby Weather Stations